Airfield :
LOGIN :

Register | Disclaimer

   EN    FR    IT 

 










Legend :    VFR   Marginal VFR   IFR   Intensive IFR   Very Intensive IFR
Visi :
Ceiling :
>= 8 km
>= 3000ft
5 to 8 km
1000 to 3000 ft
1500m to 5 km
500 to 1000 ft
800 to 1500m
200 to 500 ft
< 800m
< 200 ft
Symbols :   Thunderstorms  Fog  Heavy snow  Heavy precipitations  Wind > 20 kt
SIGMETs :     Misc.  Thunderstorms  Icing  Turbulence  Mountain Waves  Volcanic Ashes






- Airport Elevation : 235 ft
- IATA code : BZG


EPBY - Bydgoszcz

CURRENT METAR :
  • 021200Z 08010KT 060V120 9999 OVC014 M02/M05 Q1028

EXPIRED METARs :
  • 021130Z 09009KT 9999 OVC015 M02/M05 Q1028
  • 021100Z 08008KT 9999 OVC015 M02/M05 Q1029
  • 021030Z 09011KT 9999 OVC015 M02/M05 Q1029
  • 021000Z 08011KT 9999 OVC014 M02/M05 Q1029
  • 020930Z 10011KT 9999 OVC014 M02/M05 Q1029

TAF TAF EPBY
Valid from the 02 at 12:00 until the 03 at 12:00 UTC


021130Z 0212/0312 09008KT 9999 BKN016
TEMPO 0212/0306 BKN010
PROB30
TEMPO 0303/0312 3000 -SN BR BKN005



MET'MAP, your aeronautical weather chart ! - Copyright ORBIFLY December 2007 - Disclaimer

ORBIFLY MET'MAP TEAM :

Programming & Development : Alexandra Zaïnal
Original concept : Baudouin d'Aumeries
Technical & hardware support : Manuel Goepfert
Assistance : Marc-Olivier Méhu




SOURCES & CREDITS :

   NOAA